createdAt,value
2017-06-03T00:00:07.211Z,11.10
2017-06-03T00:02:40.147Z,11.07
2017-06-03T00:05:13.127Z,10.93
2017-06-03T00:07:46.367Z,10.00
2017-06-03T00:10:19.311Z,10.40
2017-06-03T00:12:52.287Z,11.13
2017-06-03T00:15:25.159Z,10.07
2017-06-03T00:17:58.955Z,11.20
2017-06-03T00:20:33.488Z,10.70
2017-06-03T00:23:06.431Z,10.40
2017-06-03T00:25:39.431Z,10.60
2017-06-03T00:28:12.454Z,11.40
2017-06-03T00:30:45.157Z,11.23
2017-06-03T00:33:18.192Z,11.00
2017-06-03T00:35:51.019Z,10.27
2017-06-03T00:38:23.863Z,10.30
2017-06-03T00:40:56.812Z,10.53
2017-06-03T00:43:29.747Z,10.40
2017-06-03T00:46:02.524Z,10.43
2017-06-03T00:48:35.460Z,11.20
2017-06-03T00:51:08.435Z,10.20
2017-06-03T00:53:41.423Z,10.63
2017-06-03T00:56:14.350Z,11.90
2017-06-03T00:58:47.229Z,10.00
2017-06-03T01:01:20.131Z,10.57
2017-06-03T01:03:53.043Z,10.90
2017-06-03T01:06:25.792Z,9.50
2017-06-03T01:08:58.831Z,10.50
2017-06-03T01:11:31.796Z,10.13
2017-06-03T01:14:04.842Z,10.20
2017-06-03T01:16:37.667Z,10.50
2017-06-03T01:19:10.629Z,9.00
2017-06-03T01:21:43.546Z,9.70
2017-06-03T01:24:16.388Z,10.67
2017-06-03T01:26:49.433Z,10.57
2017-06-03T01:29:22.119Z,10.33
2017-06-03T01:31:54.891Z,9.83
2017-06-03T01:34:25.151Z,9.80
2017-06-03T01:36:58.199Z,8.97
2017-06-03T01:39:30.771Z,8.57
2017-06-03T01:42:03.663Z,9.00
2017-06-03T01:44:36.856Z,9.67
2017-06-03T01:47:09.553Z,9.13
2017-06-03T01:49:42.547Z,9.00
2017-06-03T01:52:15.471Z,8.40
2017-06-03T01:54:48.648Z,8.33
2017-06-03T01:57:21.511Z,9.50
2017-06-03T01:59:54.263Z,8.40
2017-06-03T02:02:27.903Z,9.10
2017-06-03T02:05:00.190Z,10.23
2017-06-03T02:07:33.123Z,9.03
2017-06-03T02:10:06.275Z,9.53
2017-06-03T02:12:36.204Z,9.40
2017-06-03T02:15:09.411Z,9.97
2017-06-03T02:17:42.328Z,10.93
2017-06-03T02:20:15.454Z,9.60
2017-06-03T02:22:47.879Z,9.40
2017-06-03T02:25:20.691Z,10.03
2017-06-03T02:27:53.802Z,10.43
2017-06-03T02:30:27.151Z,10.10
2017-06-03T02:33:00.470Z,9.37
2017-06-03T02:35:34.429Z,10.43
2017-06-03T02:38:07.172Z,8.90
2017-06-03T02:40:40.243Z,10.17
2017-06-03T02:43:13.179Z,9.37
2017-06-03T02:45:46.096Z,9.67
2017-06-03T02:48:16.096Z,8.67
2017-06-03T02:50:48.783Z,9.30
2017-06-03T02:53:21.536Z,8.90
2017-06-03T02:55:54.499Z,9.10
2017-06-03T02:58:27.551Z,10.13
2017-06-03T03:00:58.363Z,9.70
2017-06-03T03:03:31.291Z,8.70
2017-06-03T03:06:04.316Z,8.90
2017-06-03T03:08:37.191Z,10.87
2017-06-03T03:11:10.168Z,9.97
2017-06-03T03:13:42.867Z,8.87
2017-06-03T03:16:15.895Z,8.80
2017-06-03T03:18:48.688Z,9.70
2017-06-03T03:21:21.571Z,9.07
2017-06-03T03:23:54.540Z,8.80
2017-06-03T03:26:28.075Z,8.83
2017-06-03T03:29:00.521Z,9.00
2017-06-03T03:31:34.475Z,9.80
2017-06-03T03:34:07.304Z,8.30
2017-06-03T03:36:39.875Z,8.70
2017-06-03T03:39:12.707Z,9.50
2017-06-03T03:41:45.638Z,9.90
2017-06-03T03:44:15.845Z,9.13
2017-06-03T03:46:48.463Z,9.03
2017-06-03T03:49:21.235Z,9.33
2017-06-03T03:51:54.083Z,9.33
2017-06-03T03:54:27.090Z,10.03
2017-06-03T03:57:00.235Z,9.10
2017-06-03T03:59:33.355Z,9.17
2017-06-03T04:02:06.372Z,9.87
2017-06-03T04:04:39.375Z,9.03
2017-06-03T04:07:12.547Z,9.60
2017-06-03T04:09:45.619Z,9.60
2017-06-03T04:12:18.815Z,8.90
2017-06-03T04:14:51.704Z,9.20
2017-06-03T04:17:24.508Z,9.97
2017-06-03T04:19:57.861Z,10.93
2017-06-03T04:22:30.079Z,10.10
2017-06-03T04:25:03.158Z,10.17
2017-06-03T04:27:36.082Z,10.80
2017-06-03T04:30:09.083Z,10.70
2017-06-03T04:32:42.024Z,9.03
2017-06-03T04:35:11.924Z,10.33
2017-06-03T04:37:44.720Z,9.67
2017-06-03T04:40:17.531Z,11.17
2017-06-03T04:42:50.375Z,10.17
2017-06-03T04:45:23.248Z,10.13
2017-06-03T04:47:56.161Z,10.30
2017-06-03T04:50:29.144Z,9.90
2017-06-03T04:53:01.827Z,9.70
2017-06-03T04:55:34.483Z,10.40
2017-06-03T04:58:07.563Z,9.40
2017-06-03T05:00:40.319Z,12.97
2017-06-03T05:03:13.184Z,9.30
2017-06-03T05:05:46.188Z,10.90
2017-06-03T05:08:19.296Z,10.80
2017-06-03T05:10:52.095Z,11.00
2017-06-03T05:13:25.047Z,10.87
2017-06-03T05:15:58.253Z,10.40
2017-06-03T05:18:30.891Z,10.67
2017-06-03T05:21:04.820Z,10.53
2017-06-03T05:23:37.773Z,9.00
2017-06-03T05:26:10.673Z,9.70
2017-06-03T05:28:43.523Z,10.07
2017-06-03T05:31:16.419Z,10.43
2017-06-03T05:33:49.320Z,10.27
2017-06-03T05:36:21.720Z,10.30
2017-06-03T05:38:54.435Z,9.83
2017-06-03T05:41:28.024Z,11.57
2017-06-03T05:44:00.407Z,10.60
2017-06-03T05:46:33.291Z,11.10
2017-06-03T05:49:06.255Z,10.53
2017-06-03T05:51:38.944Z,9.53
2017-06-03T05:54:11.807Z,10.47
2017-06-03T05:56:44.575Z,10.73
2017-06-03T05:59:17.651Z,10.70
2017-06-03T06:01:50.603Z,11.00
2017-06-03T06:04:23.632Z,9.90
2017-06-03T06:06:56.468Z,11.10
2017-06-03T06:09:29.536Z,11.20
2017-06-03T06:12:02.639Z,11.63
2017-06-03T06:14:35.542Z,11.23
2017-06-03T06:17:08.244Z,11.03
2017-06-03T06:19:41.119Z,11.40
2017-06-03T06:22:14.187Z,12.77
2017-06-03T06:24:47.139Z,12.10
2017-06-03T06:27:20.008Z,12.00
2017-06-03T06:29:52.244Z,10.73
2017-06-03T06:32:25.002Z,10.43
2017-06-03T06:34:58.333Z,10.37
2017-06-03T06:37:30.928Z,9.37
2017-06-03T06:40:03.779Z,10.70
2017-06-03T06:42:36.536Z,9.43
2017-06-03T06:45:09.403Z,10.07
2017-06-03T06:47:42.142Z,11.67
2017-06-03T06:50:15.111Z,10.97
2017-06-03T06:52:47.311Z,9.70
2017-06-03T06:55:20.306Z,9.20
2017-06-03T06:57:53.220Z,11.30
2017-06-03T07:00:25.967Z,10.67
2017-06-03T07:02:59.068Z,11.10
2017-06-03T07:05:31.959Z,10.47
2017-06-03T07:08:04.927Z,11.67
2017-06-03T07:10:37.668Z,11.07
2017-06-03T07:13:10.436Z,12.27
2017-06-03T07:15:43.215Z,14.03
2017-06-03T07:18:16.063Z,14.10
2017-06-03T07:20:48.812Z,12.77
2017-06-03T07:23:21.672Z,11.07
2017-06-03T07:25:54.540Z,12.27
2017-06-03T07:28:27.910Z,11.60
2017-06-03T07:31:00.195Z,10.97
2017-06-03T07:33:33.244Z,12.40
2017-06-03T07:36:06.039Z,12.50
2017-06-03T07:38:39.059Z,10.47
2017-06-03T07:41:11.979Z,10.73
2017-06-03T07:43:44.695Z,11.63
2017-06-03T07:46:17.839Z,11.20
2017-06-03T07:48:50.743Z,12.40
2017-06-03T07:51:23.691Z,11.37
2017-06-03T07:53:53.611Z,9.27
2017-06-03T07:56:26.555Z,10.10
2017-06-03T07:58:59.659Z,8.33
2017-06-03T08:01:32.648Z,9.90
2017-06-03T08:04:07.959Z,9.47
2017-06-03T08:06:40.394Z,10.60
2017-06-03T08:09:13.516Z,10.40
2017-06-03T08:11:46.331Z,9.27
2017-06-03T08:14:19.032Z,10.10
2017-06-03T08:16:51.865Z,10.87
2017-06-03T08:19:24.907Z,9.40
2017-06-03T08:21:58.167Z,10.13
2017-06-03T08:24:30.655Z,8.60
2017-06-03T08:27:04.839Z,9.00
2017-06-03T08:29:37.741Z,10.40
2017-06-03T08:32:10.744Z,10.07
2017-06-03T08:34:43.779Z,9.73
2017-06-03T08:37:16.696Z,10.10
2017-06-03T08:39:49.659Z,8.50
2017-06-03T08:42:22.774Z,10.70
2017-06-03T08:44:55.141Z,10.60
2017-06-03T08:47:29.138Z,9.50
2017-06-03T08:50:02.129Z,10.40
2017-06-03T08:52:34.890Z,12.93
2017-06-03T08:55:07.887Z,12.00
2017-06-03T08:57:40.583Z,9.57
2017-06-03T09:00:13.499Z,10.63
2017-06-03T09:02:46.484Z,10.07
2017-06-03T09:05:19.375Z,8.77
2017-06-03T09:07:52.155Z,9.30
2017-06-03T09:10:24.918Z,8.33
2017-06-03T09:12:58.655Z,9.57
2017-06-03T09:15:33.579Z,8.47
2017-06-03T09:18:06.387Z,8.87
2017-06-03T09:20:39.196Z,8.17
2017-06-03T09:23:12.059Z,7.73
2017-06-03T09:25:45.161Z,8.47
2017-06-03T09:28:18.111Z,8.83
2017-06-03T09:30:50.939Z,9.33
2017-06-03T09:33:23.923Z,7.90
2017-06-03T09:35:56.784Z,7.70
2017-06-03T09:38:29.935Z,7.23
2017-06-03T09:41:02.719Z,6.50
2017-06-03T09:43:35.450Z,6.13
2017-06-03T09:46:08.366Z,6.70
2017-06-03T09:48:41.287Z,6.37
2017-06-03T09:51:14.363Z,7.17
2017-06-03T09:53:47.383Z,7.83
2017-06-03T09:56:20.215Z,7.60
2017-06-03T09:58:53.160Z,8.17
2017-06-03T10:01:26.003Z,6.00
2017-06-03T10:03:55.778Z,7.23
2017-06-03T10:06:28.327Z,7.07
2017-06-03T10:09:01.175Z,5.27
2017-06-03T10:11:34.075Z,5.70
2017-06-03T10:14:07.163Z,4.80
2017-06-03T10:16:39.379Z,4.50
2017-06-03T10:19:12.275Z,4.13
2017-06-03T10:21:45.036Z,4.30
2017-06-03T10:24:17.879Z,4.43
2017-06-03T10:26:50.891Z,5.20
2017-06-03T10:29:23.568Z,3.93
2017-06-03T10:31:56.355Z,3.00
2017-06-03T10:34:28.640Z,3.87
2017-06-03T10:37:01.503Z,3.80
2017-06-03T10:39:34.303Z,3.90
2017-06-03T10:42:07.392Z,4.00
2017-06-03T10:44:40.276Z,4.00
2017-06-03T10:47:13.143Z,4.20
2017-06-03T10:49:46.212Z,4.13
2017-06-03T10:52:18.979Z,4.27
2017-06-03T10:54:52.120Z,4.00
2017-06-03T10:57:24.940Z,4.40
2017-06-03T10:59:57.240Z,4.07
2017-06-03T11:02:30.039Z,4.10
2017-06-03T11:05:03.106Z,4.90
2017-06-03T11:07:36.099Z,4.40
2017-06-03T11:10:08.948Z,4.53
2017-06-03T11:12:41.765Z,3.90
2017-06-03T11:15:14.334Z,3.33
2017-06-03T11:17:47.427Z,3.80
2017-06-03T11:20:20.395Z,3.57
2017-06-03T11:22:53.067Z,3.67
2017-06-03T11:25:25.847Z,3.70
2017-06-03T11:27:58.664Z,2.93
2017-06-03T11:30:31.685Z,3.73
2017-06-03T11:33:04.479Z,4.10
2017-06-03T11:35:37.487Z,3.63
2017-06-03T11:38:10.303Z,3.37
2017-06-03T11:40:43.343Z,3.20
2017-06-03T11:43:16.331Z,4.87
2017-06-03T11:45:51.520Z,6.03
2017-06-03T11:48:24.255Z,6.30
2017-06-03T11:50:57.281Z,9.10
2017-06-03T11:53:30.428Z,6.47
2017-06-03T11:56:03.328Z,5.07
2017-06-03T11:58:36.109Z,5.90
2017-06-03T12:01:09.299Z,5.53
2017-06-03T12:03:42.403Z,6.30
2017-06-03T12:06:12.660Z,7.90
2017-06-03T12:08:45.476Z,7.40
2017-06-03T12:11:18.143Z,8.90
2017-06-03T12:13:50.996Z,6.43
2017-06-03T12:16:23.699Z,5.90
2017-06-03T12:18:56.683Z,4.40
2017-06-03T12:21:29.843Z,4.53
2017-06-03T12:24:02.808Z,4.00
2017-06-03T12:26:35.591Z,3.70
2017-06-03T12:29:08.319Z,3.37
2017-06-03T12:31:41.184Z,3.60
2017-06-03T12:34:13.388Z,3.97
2017-06-03T12:36:46.223Z,4.37
2017-06-03T12:39:18.968Z,4.27
2017-06-03T12:41:51.839Z,4.00
2017-06-03T12:44:24.435Z,3.70
2017-06-03T12:46:57.380Z,3.77
2017-06-03T12:49:31.067Z,4.93
2017-06-03T12:52:04.139Z,4.90
2017-06-03T12:54:36.899Z,6.03
2017-06-03T12:57:09.567Z,5.63
2017-06-03T12:59:42.452Z,5.43
2017-06-03T13:02:15.408Z,4.80
2017-06-03T13:04:48.256Z,4.30
2017-06-03T13:07:21.348Z,4.13
2017-06-03T13:09:54.251Z,3.80
2017-06-03T13:12:27.387Z,3.90
2017-06-03T13:15:01.210Z,3.73
2017-06-03T13:17:34.111Z,3.33
2017-06-03T13:20:07.000Z,3.33
2017-06-03T13:22:39.931Z,3.60
2017-06-03T13:25:13.013Z,3.20
2017-06-03T13:27:45.915Z,2.90
2017-06-03T13:30:19.008Z,3.07
2017-06-03T13:32:51.695Z,2.40
2017-06-03T13:35:24.775Z,3.10
2017-06-03T13:37:57.800Z,2.77
2017-06-03T13:40:30.711Z,2.33
2017-06-03T13:43:04.679Z,2.23
2017-06-03T13:45:37.707Z,2.87
2017-06-03T13:48:10.386Z,2.53
2017-06-03T13:50:43.152Z,2.87
2017-06-03T13:53:15.896Z,2.30
2017-06-03T13:55:48.744Z,3.47
2017-06-03T13:58:21.715Z,3.67
2017-06-03T14:00:54.780Z,3.23
2017-06-03T14:03:27.816Z,3.60
2017-06-03T14:06:00.815Z,3.40
2017-06-03T14:08:33.774Z,4.03
2017-06-03T14:11:06.363Z,3.67
2017-06-03T14:13:38.703Z,3.60
2017-06-03T14:16:11.567Z,4.47
2017-06-03T14:18:44.519Z,4.53
2017-06-03T14:21:17.376Z,3.17
2017-06-03T14:23:50.535Z,2.50
2017-06-03T14:26:23.495Z,3.17
2017-06-03T14:28:56.331Z,3.07
2017-06-03T14:31:29.011Z,3.33
2017-06-03T14:34:01.839Z,3.87
2017-06-03T14:36:34.523Z,3.13
2017-06-03T14:39:07.531Z,3.10
2017-06-03T14:41:40.520Z,3.50
2017-06-03T14:44:13.427Z,3.00
2017-06-03T14:46:50.631Z,4.10
2017-06-03T14:49:23.281Z,3.30
2017-06-03T14:51:56.123Z,2.60
2017-06-03T14:54:29.007Z,2.97
2017-06-03T14:57:03.757Z,3.13
2017-06-03T14:59:36.419Z,3.13
2017-06-03T15:02:08.639Z,3.00
2017-06-03T15:04:41.539Z,3.50
2017-06-03T15:07:14.255Z,4.30
2017-06-03T15:09:46.875Z,3.57
2017-06-03T15:12:19.466Z,3.43
2017-06-03T15:14:52.599Z,3.40
2017-06-03T15:17:25.556Z,3.63
2017-06-03T15:19:58.435Z,3.93
2017-06-03T15:22:31.644Z,4.60
2017-06-03T15:25:04.799Z,4.13
2017-06-03T15:27:37.583Z,4.30
2017-06-03T15:30:10.307Z,4.10
2017-06-03T15:32:43.288Z,4.17
2017-06-03T15:35:16.237Z,4.22
2017-06-03T15:37:49.243Z,4.20
2017-06-03T15:40:19.543Z,5.17
2017-06-03T15:42:52.260Z,5.73
2017-06-03T15:45:25.238Z,5.50
2017-06-03T15:47:58.234Z,5.43
2017-06-03T15:50:31.434Z,5.17
2017-06-03T15:53:03.746Z,5.53
2017-06-03T15:55:36.843Z,6.40
2017-06-03T15:58:09.848Z,6.40
2017-06-03T16:00:42.731Z,6.00
2017-06-03T16:03:15.539Z,6.13
2017-06-03T16:05:48.412Z,6.77
2017-06-03T16:08:20.807Z,6.70
2017-06-03T16:10:53.667Z,6.50
2017-06-03T16:13:27.072Z,7.67
2017-06-03T16:15:59.503Z,6.90
2017-06-03T16:18:36.147Z,6.93
2017-06-03T16:21:09.112Z,7.50
2017-06-03T16:23:42.080Z,6.87
2017-06-03T16:26:14.857Z,6.33
2017-06-03T16:28:47.663Z,7.23
2017-06-03T16:31:20.632Z,7.70
2017-06-03T16:33:53.555Z,11.37
2017-06-03T16:36:26.531Z,13.00
2017-06-03T16:38:59.421Z,21.93
2017-06-03T16:41:32.623Z,13.80
2017-06-03T16:44:05.781Z,11.87
2017-06-03T16:46:38.645Z,9.77
2017-06-03T16:49:11.519Z,8.10
2017-06-03T16:51:44.374Z,7.20
2017-06-03T16:54:17.443Z,8.07
2017-06-03T16:56:50.418Z,7.70
2017-06-03T16:59:23.380Z,8.47
2017-06-03T17:01:56.051Z,8.77
2017-06-03T17:04:28.657Z,7.47
2017-06-03T17:07:00.907Z,10.20
2017-06-03T17:09:34.835Z,8.83
2017-06-03T17:12:07.700Z,9.23
2017-06-03T17:14:40.395Z,8.90
2017-06-03T17:17:13.204Z,10.13
2017-06-03T17:19:45.903Z,9.30
2017-06-03T17:22:21.539Z,7.23
2017-06-03T17:24:53.864Z,9.07
2017-06-03T17:27:26.807Z,9.40
2017-06-03T17:29:59.795Z,9.43
2017-06-03T17:32:32.279Z,8.80
2017-06-03T17:35:05.127Z,8.17
2017-06-03T17:37:37.759Z,8.90
2017-06-03T17:40:07.932Z,9.03
2017-06-03T17:42:40.284Z,11.30
2017-06-03T17:45:13.003Z,10.20
2017-06-03T17:47:46.100Z,8.13
2017-06-03T17:50:19.023Z,8.60
2017-06-03T17:52:51.887Z,9.50
2017-06-03T17:55:24.927Z,10.40
2017-06-03T17:57:57.960Z,9.50
2017-06-03T18:00:30.715Z,9.40
2017-06-03T18:03:03.623Z,9.30
2017-06-03T18:05:36.563Z,8.57
2017-06-03T18:08:09.455Z,8.50
2017-06-03T18:10:42.407Z,8.60
2017-06-03T18:13:15.307Z,9.43
2017-06-03T18:15:48.312Z,10.23
2017-06-03T18:18:21.283Z,10.70
2017-06-03T18:20:51.483Z,8.60
2017-06-03T18:23:24.359Z,8.70
2017-06-03T18:25:57.439Z,9.80
2017-06-03T18:28:27.504Z,8.80
2017-06-03T18:31:00.366Z,9.77
2017-06-03T18:33:33.239Z,9.97
2017-06-03T18:36:06.069Z,9.90
2017-06-03T18:38:39.259Z,10.27
2017-06-03T18:41:13.983Z,10.23
2017-06-03T18:43:46.663Z,10.00
2017-06-03T18:46:19.293Z,10.27
2017-06-03T18:48:52.193Z,12.17
2017-06-03T18:51:25.355Z,11.33
2017-06-03T18:54:00.668Z,10.57
2017-06-03T18:56:33.897Z,10.00
2017-06-03T18:59:06.662Z,9.87
2017-06-03T19:01:39.494Z,9.83
2017-06-03T19:04:12.487Z,10.17
2017-06-03T19:06:45.441Z,11.13
2017-06-03T19:09:18.576Z,12.17
2017-06-03T19:11:51.532Z,8.57
2017-06-03T19:14:24.289Z,8.23
2017-06-03T19:16:57.079Z,7.10
2017-06-03T19:19:30.163Z,7.17
2017-06-03T19:22:03.003Z,6.40
2017-06-03T19:24:35.947Z,6.67
2017-06-03T19:27:08.993Z,7.00
2017-06-03T19:29:41.755Z,7.60
2017-06-03T19:32:14.722Z,7.80
2017-06-03T19:34:47.692Z,10.57
2017-06-03T19:37:20.496Z,7.90
2017-06-03T19:39:53.055Z,7.77
2017-06-03T19:42:25.822Z,8.33
2017-06-03T19:44:58.947Z,6.00
2017-06-03T19:47:32.023Z,5.37
2017-06-03T19:50:04.957Z,4.77
2017-06-03T19:52:37.962Z,5.93
2017-06-03T19:55:10.610Z,5.30
2017-06-03T19:57:43.267Z,6.17
2017-06-03T20:00:16.011Z,5.10
2017-06-03T20:02:48.891Z,4.80
2017-06-03T20:05:21.836Z,5.67
2017-06-03T20:07:54.744Z,5.73
2017-06-03T20:10:27.504Z,5.93
2017-06-03T20:13:00.468Z,7.20
2017-06-03T20:15:33.655Z,8.40
2017-06-03T20:18:06.614Z,8.50
2017-06-03T20:20:39.641Z,8.83
2017-06-03T20:23:12.497Z,8.87
2017-06-03T20:25:45.205Z,8.23
2017-06-03T20:28:18.231Z,7.63
2017-06-03T20:30:51.079Z,7.47
2017-06-03T20:33:24.099Z,8.43
2017-06-03T20:35:56.947Z,8.00
2017-06-03T20:38:29.788Z,7.60
2017-06-03T20:41:03.019Z,7.23
2017-06-03T20:43:35.812Z,7.13
2017-06-03T20:46:08.668Z,6.33
2017-06-03T20:48:41.713Z,6.07
2017-06-03T20:51:14.343Z,7.50
2017-06-03T20:53:47.384Z,7.90
2017-06-03T20:56:20.137Z,6.13
2017-06-03T20:58:53.308Z,7.33
2017-06-03T21:01:26.391Z,7.13
2017-06-03T21:03:59.271Z,6.77
2017-06-03T21:06:32.024Z,7.20
2017-06-03T21:09:04.988Z,6.90
2017-06-03T21:11:37.984Z,7.10
2017-06-03T21:14:10.958Z,6.00
2017-06-03T21:16:43.891Z,6.43
2017-06-03T21:19:16.903Z,6.37
2017-06-03T21:21:49.747Z,6.43
2017-06-03T21:24:22.818Z,6.30
2017-06-03T21:26:55.753Z,7.90
2017-06-03T21:29:28.657Z,7.63
2017-06-03T21:32:01.993Z,8.23
2017-06-03T21:34:34.799Z,8.80
2017-06-03T21:37:07.647Z,9.47
2017-06-03T21:39:40.431Z,8.40
2017-06-03T21:42:13.323Z,7.27
2017-06-03T21:44:46.307Z,6.40
2017-06-03T21:47:19.216Z,7.50
2017-06-03T21:49:52.035Z,6.77
2017-06-03T21:52:24.787Z,6.07
2017-06-03T21:54:57.584Z,5.20
2017-06-03T21:57:30.419Z,5.23
2017-06-03T22:00:03.310Z,5.73
2017-06-03T22:02:36.461Z,5.90
2017-06-03T22:05:08.988Z,4.60
2017-06-03T22:07:41.727Z,5.47
2017-06-03T22:10:14.473Z,4.73
2017-06-03T22:12:47.356Z,4.10
2017-06-03T22:15:20.047Z,5.20
2017-06-03T22:17:53.086Z,5.87
2017-06-03T22:20:25.975Z,5.47
2017-06-03T22:22:58.267Z,5.60
2017-06-03T22:25:31.726Z,5.00
2017-06-03T22:28:04.179Z,5.93
2017-06-03T22:30:36.979Z,6.03
2017-06-03T22:33:10.228Z,5.90
2017-06-03T22:35:43.107Z,6.13
2017-06-03T22:38:15.939Z,5.60
2017-06-03T22:40:48.734Z,5.67
2017-06-03T22:43:21.479Z,7.47
2017-06-03T22:45:54.447Z,6.80
2017-06-03T22:48:27.367Z,6.63
2017-06-03T22:51:00.079Z,6.43
2017-06-03T22:53:33.240Z,8.50
2017-06-03T22:56:06.203Z,7.40
2017-06-03T22:58:39.162Z,8.40
2017-06-03T23:01:11.891Z,8.43
2017-06-03T23:03:44.951Z,9.00
2017-06-03T23:06:18.004Z,7.57
2017-06-03T23:08:50.871Z,9.47
2017-06-03T23:11:23.737Z,9.33
2017-06-03T23:13:56.527Z,8.90
2017-06-03T23:16:29.511Z,8.63
2017-06-03T23:19:02.296Z,9.00
2017-06-03T23:21:35.384Z,7.23
2017-06-03T23:24:08.465Z,8.17
2017-06-03T23:26:41.463Z,7.70
2017-06-03T23:29:14.296Z,7.43
2017-06-03T23:31:46.851Z,7.03
2017-06-03T23:34:19.860Z,6.97
2017-06-03T23:36:52.878Z,7.53
2017-06-03T23:39:25.843Z,7.70
2017-06-03T23:41:58.751Z,7.30
2017-06-03T23:44:31.863Z,7.47
2017-06-03T23:47:04.684Z,7.60
2017-06-03T23:49:37.530Z,7.20
2017-06-03T23:52:10.426Z,7.50
2017-06-03T23:54:43.207Z,8.17
2017-06-03T23:57:16.036Z,6.80
2017-06-03T23:59:48.947Z,6.70
